createdAt,value
2018-07-04T00:01:06.546Z,6.83
2018-07-04T00:03:47.024Z,6.90
2018-07-04T00:06:27.676Z,7.63
2018-07-04T00:09:08.245Z,7.43
2018-07-04T00:11:49.731Z,7.30
2018-07-04T00:14:30.284Z,8.00
2018-07-04T00:17:10.827Z,8.40
2018-07-04T00:19:51.292Z,8.10
2018-07-04T00:22:31.498Z,7.63
2018-07-04T00:25:11.903Z,8.47
2018-07-04T00:27:52.305Z,7.93
2018-07-04T00:30:32.635Z,8.10
2018-07-04T00:33:13.146Z,7.53
2018-07-04T00:35:53.728Z,7.93
2018-07-04T00:38:34.311Z,9.13
2018-07-04T00:41:14.846Z,8.63
2018-07-04T00:43:56.504Z,9.20
2018-07-04T00:46:37.042Z,9.17
2018-07-04T00:49:17.398Z,8.73
2018-07-04T00:51:57.622Z,8.03
2018-07-04T00:54:31.889Z,8.23
2018-07-04T00:57:12.260Z,8.43
2018-07-04T00:59:52.655Z,8.60
2018-07-04T01:02:33.078Z,8.07
2018-07-04T01:05:14.169Z,7.83
2018-07-04T01:07:54.662Z,9.47
2018-07-04T01:10:35.071Z,7.80
2018-07-04T01:13:16.785Z,8.20
2018-07-04T01:15:57.295Z,8.73
2018-07-04T01:18:39.346Z,9.30
2018-07-04T01:21:19.797Z,8.77
2018-07-04T01:24:00.132Z,9.50
2018-07-04T01:26:41.680Z,9.90
2018-07-04T01:29:21.980Z,9.73
2018-07-04T01:32:02.304Z,9.67
2018-07-04T01:34:42.689Z,9.73
2018-07-04T01:37:23.210Z,9.10
2018-07-04T01:40:03.765Z,8.90
2018-07-04T01:42:43.998Z,10.03
2018-07-04T01:45:24.433Z,9.67
2018-07-04T01:48:05.076Z,10.00
2018-07-04T01:50:45.513Z,10.33
2018-07-04T01:53:26.108Z,9.53
2018-07-04T01:56:06.454Z,9.43
2018-07-04T01:58:46.852Z,10.40
2018-07-04T02:01:27.138Z,9.90
2018-07-04T02:04:07.390Z,9.90
2018-07-04T02:06:47.814Z,10.43
2018-07-04T02:09:28.101Z,10.30
2018-07-04T02:12:08.479Z,9.70
2018-07-04T02:14:48.821Z,11.27
2018-07-04T02:17:29.298Z,10.20
2018-07-04T02:20:09.657Z,10.50
2018-07-04T02:22:49.829Z,10.63
2018-07-04T02:25:30.073Z,9.83
2018-07-04T02:28:10.417Z,11.17
2018-07-04T02:30:51.028Z,11.47
2018-07-04T02:33:31.289Z,10.03
2018-07-04T02:36:11.695Z,11.70
2018-07-04T02:38:52.180Z,11.30
2018-07-04T02:41:32.518Z,11.00
2018-07-04T02:44:12.944Z,12.33
2018-07-04T02:46:53.303Z,11.80
2018-07-04T02:49:33.814Z,11.07
2018-07-04T02:52:14.265Z,12.23
2018-07-04T02:54:54.733Z,11.73
2018-07-04T02:57:34.948Z,12.30
2018-07-04T03:00:15.365Z,12.27
2018-07-04T03:02:55.906Z,11.00
2018-07-04T03:05:36.258Z,11.70
2018-07-04T03:08:16.532Z,11.73
2018-07-04T03:10:56.890Z,10.87
2018-07-04T03:13:37.233Z,12.37
2018-07-04T03:16:17.593Z,12.60
2018-07-04T03:18:58.070Z,11.70
2018-07-04T03:21:38.822Z,12.53
2018-07-04T03:24:19.186Z,11.17
2018-07-04T03:26:59.633Z,13.03
2018-07-04T03:29:39.890Z,11.90
2018-07-04T03:32:20.241Z,12.47
2018-07-04T03:35:00.763Z,10.97
2018-07-04T03:37:41.377Z,10.40
2018-07-04T03:40:21.604Z,12.23
2018-07-04T03:43:02.481Z,12.53
2018-07-04T03:45:42.897Z,11.07
2018-07-04T03:48:23.356Z,12.60
2018-07-04T03:51:03.845Z,13.10
2018-07-04T03:53:44.223Z,12.07
2018-07-04T03:56:24.720Z,12.97
2018-07-04T03:59:05.131Z,12.50
2018-07-04T04:01:45.502Z,11.80
2018-07-04T04:04:25.983Z,12.53
2018-07-04T04:07:06.509Z,11.70
2018-07-04T04:09:46.987Z,13.10
2018-07-04T04:12:27.348Z,11.07
2018-07-04T04:15:07.790Z,12.20
2018-07-04T04:17:48.106Z,12.10
2018-07-04T04:20:28.462Z,13.27
2018-07-04T04:23:08.988Z,12.83
2018-07-04T04:25:49.341Z,12.30
2018-07-04T04:28:29.979Z,12.10
2018-07-04T04:31:10.484Z,12.47
2018-07-04T04:33:50.867Z,14.30
2018-07-04T04:36:31.484Z,12.70
2018-07-04T04:39:12.120Z,13.70
2018-07-04T04:41:52.669Z,12.70
2018-07-04T04:44:32.980Z,11.87
2018-07-04T04:47:13.279Z,12.07
2018-07-04T04:49:54.212Z,12.50
2018-07-04T04:52:34.646Z,12.00
2018-07-04T04:55:15.264Z,12.37
2018-07-04T04:57:55.593Z,12.00
2018-07-04T05:00:35.949Z,12.37
2018-07-04T05:03:16.373Z,11.10
2018-07-04T05:05:56.799Z,12.67
2018-07-04T05:08:37.157Z,11.70
2018-07-04T05:11:17.998Z,13.23
2018-07-04T05:13:58.327Z,11.53
2018-07-04T05:16:39.132Z,12.37
2018-07-04T05:19:19.712Z,11.23
2018-07-04T05:22:01.002Z,11.37
2018-07-04T05:24:41.657Z,13.57
2018-07-04T05:27:22.262Z,12.00
2018-07-04T05:30:02.739Z,11.40
2018-07-04T05:32:43.468Z,12.83
2018-07-04T05:35:23.937Z,12.03
2018-07-04T05:38:04.580Z,12.33
2018-07-04T05:40:45.178Z,11.23
2018-07-04T05:43:25.887Z,12.53
2018-07-04T05:46:06.395Z,12.33
2018-07-04T05:48:46.857Z,12.10
2018-07-04T05:51:27.361Z,11.50
2018-07-04T05:54:07.560Z,11.50
2018-07-04T05:56:47.951Z,12.10
2018-07-04T05:59:28.283Z,11.00
2018-07-04T06:02:08.832Z,11.80
2018-07-04T06:04:49.173Z,12.07
2018-07-04T06:07:29.638Z,11.17
2018-07-04T06:10:09.961Z,11.43
2018-07-04T06:12:50.270Z,10.73
2018-07-04T06:15:30.530Z,11.10
2018-07-04T06:18:10.969Z,11.80
2018-07-04T06:20:51.663Z,10.63
2018-07-04T06:23:32.116Z,11.00
2018-07-04T06:26:12.416Z,11.03
2018-07-04T06:28:52.799Z,10.60
2018-07-04T06:31:33.258Z,12.37
2018-07-04T06:34:13.729Z,10.97
2018-07-04T06:36:54.129Z,11.90
2018-07-04T06:39:22.313Z,10.97
2018-07-04T06:41:50.268Z,11.17
2018-07-04T06:44:18.226Z,9.73
2018-07-04T06:46:46.178Z,10.70
2018-07-04T06:49:14.206Z,10.40
2018-07-04T06:51:42.062Z,10.53
2018-07-04T06:54:10.029Z,9.80
2018-07-04T06:56:37.973Z,9.77
2018-07-04T06:59:05.920Z,10.23
2018-07-04T07:01:33.874Z,10.13
2018-07-04T07:04:14.418Z,10.20
2018-07-04T07:06:54.833Z,9.37
2018-07-04T07:09:29.479Z,10.03
2018-07-04T07:12:09.636Z,9.93
2018-07-04T07:14:50.069Z,10.10
2018-07-04T07:17:30.565Z,10.00
2018-07-04T07:20:11.099Z,8.53
2018-07-04T07:22:51.233Z,9.80
2018-07-04T07:25:31.743Z,10.10
2018-07-04T07:28:12.094Z,10.27
2018-07-04T07:30:52.360Z,8.90
2018-07-04T07:33:32.904Z,9.33
2018-07-04T07:36:13.261Z,9.30
2018-07-04T07:38:53.644Z,9.20
2018-07-04T07:41:34.067Z,8.53
2018-07-04T07:44:14.566Z,7.80
2018-07-04T07:46:54.861Z,9.20
2018-07-04T07:49:35.078Z,7.73
2018-07-04T07:52:15.520Z,7.43
2018-07-04T07:54:56.069Z,9.23
2018-07-04T07:57:36.510Z,8.80
2018-07-04T08:00:16.889Z,8.17
2018-07-04T08:02:57.375Z,9.03
2018-07-04T08:05:37.870Z,8.70
2018-07-04T08:08:18.386Z,7.20
2018-07-04T08:10:59.981Z,8.40
2018-07-04T08:13:40.193Z,7.33
2018-07-04T08:16:14.489Z,8.53
2018-07-04T08:18:55.040Z,7.57
2018-07-04T08:21:35.477Z,7.90
2018-07-04T08:24:15.941Z,8.03
2018-07-04T08:26:56.250Z,7.97
2018-07-04T08:29:36.621Z,8.13
2018-07-04T08:32:17.148Z,7.03
2018-07-04T08:34:57.521Z,7.90
2018-07-04T08:37:37.824Z,7.80
2018-07-04T08:40:18.277Z,6.83
2018-07-04T08:43:00.638Z,7.03
2018-07-04T08:45:41.096Z,7.10
2018-07-04T08:48:21.666Z,7.20
2018-07-04T08:51:01.904Z,8.03
2018-07-04T08:53:42.387Z,8.07
2018-07-04T08:56:16.750Z,8.33
2018-07-04T08:58:56.977Z,8.10
2018-07-04T09:01:37.342Z,7.67
2018-07-04T09:04:17.896Z,7.53
2018-07-04T09:06:58.400Z,7.20
2018-07-04T09:09:39.024Z,7.60
2018-07-04T09:12:19.337Z,8.40
2018-07-04T09:15:00.719Z,7.50
2018-07-04T09:17:40.909Z,8.17
2018-07-04T09:20:21.287Z,7.90
2018-07-04T09:23:01.350Z,10.10
2018-07-04T09:25:41.667Z,8.10
2018-07-04T09:28:22.001Z,7.90
2018-07-04T09:31:02.236Z,6.80
2018-07-04T09:33:42.559Z,7.40
2018-07-04T09:36:22.917Z,8.63
2018-07-04T09:39:03.945Z,8.93
2018-07-04T09:41:44.145Z,8.97
2018-07-04T09:44:24.590Z,9.03
2018-07-04T09:47:05.061Z,8.80
2018-07-04T09:49:45.492Z,7.70
2018-07-04T09:52:25.854Z,9.23
2018-07-04T09:55:07.292Z,7.23
2018-07-04T09:57:47.689Z,6.90
2018-07-04T10:00:28.522Z,7.27
2018-07-04T10:03:09.974Z,5.70
2018-07-04T10:05:50.485Z,6.83
2018-07-04T10:08:30.708Z,8.20
2018-07-04T10:11:11.236Z,7.50
2018-07-04T10:13:51.565Z,7.53
2018-07-04T10:16:31.927Z,6.77
2018-07-04T10:19:12.277Z,6.03
2018-07-04T10:21:52.504Z,6.43
2018-07-04T10:24:32.947Z,7.20
2018-07-04T10:27:13.255Z,6.83
2018-07-04T10:29:53.731Z,6.47
2018-07-04T10:32:28.077Z,6.10
2018-07-04T10:35:08.334Z,6.50
2018-07-04T10:37:48.771Z,7.97
2018-07-04T10:40:29.393Z,7.17
2018-07-04T10:43:09.714Z,6.70
2018-07-04T10:45:50.100Z,6.70
2018-07-04T10:48:30.532Z,7.20
2018-07-04T10:51:10.862Z,7.50
2018-07-04T10:53:51.201Z,7.67
2018-07-04T10:56:31.578Z,9.80
2018-07-04T10:59:12.079Z,8.37
2018-07-04T11:01:52.485Z,8.23
2018-07-04T11:04:33.191Z,8.37
2018-07-04T11:07:13.600Z,8.57
2018-07-04T11:09:53.867Z,7.77
2018-07-04T11:12:34.506Z,9.37
2018-07-04T11:15:14.966Z,9.87
2018-07-04T11:17:55.350Z,8.43
2018-07-04T11:20:35.962Z,7.93
2018-07-04T11:23:16.198Z,7.03
2018-07-04T11:25:56.554Z,8.43
2018-07-04T11:28:37.008Z,8.07
2018-07-04T11:31:17.122Z,7.83
2018-07-04T11:33:57.601Z,8.30
2018-07-04T11:36:37.979Z,6.90
2018-07-04T11:39:18.207Z,7.03
2018-07-04T11:41:58.517Z,6.07
2018-07-04T11:44:38.933Z,5.77
2018-07-04T11:47:07.813Z,6.00
2018-07-04T11:49:35.840Z,5.17
2018-07-04T11:52:03.838Z,4.33
2018-07-04T11:54:31.821Z,5.13
2018-07-04T11:57:00.139Z,5.50
2018-07-04T11:59:27.865Z,5.10
2018-07-04T12:01:55.835Z,5.83
2018-07-04T12:04:36.270Z,5.35
2018-07-04T12:07:06.157Z,4.90
2018-07-04T12:09:34.914Z,6.40
2018-07-04T12:12:02.861Z,4.97
2018-07-04T12:14:31.158Z,4.87
2018-07-04T12:16:59.664Z,5.12
2018-07-04T12:19:27.963Z,5.33
2018-07-04T12:21:55.933Z,5.95
2018-07-04T12:24:23.866Z,5.20
2018-07-04T12:26:51.882Z,5.87
2018-07-04T12:29:19.757Z,5.30
2018-07-04T12:31:48.053Z,5.20
2018-07-04T12:34:16.000Z,5.95
2018-07-04T12:36:43.944Z,6.53
2018-07-04T12:39:12.169Z,6.50
2018-07-04T12:41:40.435Z,5.53
2018-07-04T12:44:08.413Z,5.83
2018-07-04T12:46:36.373Z,6.80
2018-07-04T12:49:05.161Z,7.67
2018-07-04T12:51:34.909Z,7.37
2018-07-04T12:54:08.382Z,6.10
2018-07-04T12:56:48.455Z,7.07
2018-07-04T12:59:28.846Z,6.90
2018-07-04T13:02:09.139Z,7.03
2018-07-04T13:04:49.402Z,6.70
2018-07-04T13:07:29.708Z,5.97
2018-07-04T13:10:10.266Z,6.10
2018-07-04T13:12:51.453Z,5.63
2018-07-04T13:15:31.733Z,5.80
2018-07-04T13:18:12.156Z,5.43
2018-07-04T13:20:52.587Z,6.23
2018-07-04T13:23:32.947Z,6.17
2018-07-04T13:26:13.287Z,6.10
2018-07-04T13:28:53.525Z,5.80
2018-07-04T13:31:34.033Z,5.60
2018-07-04T13:34:14.278Z,6.80
2018-07-04T13:36:54.627Z,5.70
2018-07-04T13:39:35.291Z,6.70
2018-07-04T13:42:15.752Z,5.10
2018-07-04T13:44:55.984Z,7.33
2018-07-04T13:47:36.460Z,6.40
2018-07-04T13:50:16.979Z,6.93
2018-07-04T13:52:57.535Z,6.60
2018-07-04T13:55:37.966Z,6.07
2018-07-04T13:58:18.135Z,6.20
2018-07-04T14:00:58.393Z,6.30
2018-07-04T14:03:38.754Z,6.13
2018-07-04T14:06:19.098Z,6.47
2018-07-04T14:08:59.454Z,6.50
2018-07-04T14:11:40.077Z,6.73
2018-07-04T14:14:20.500Z,5.90
2018-07-04T14:17:00.958Z,5.90
2018-07-04T14:19:41.636Z,5.93
2018-07-04T14:22:22.093Z,5.67
2018-07-04T14:25:02.933Z,5.20
2018-07-04T14:27:43.497Z,4.73
2018-07-04T14:30:23.860Z,7.53
2018-07-04T14:33:04.242Z,6.30
2018-07-04T14:35:44.562Z,5.50
2018-07-04T14:38:25.121Z,7.23
2018-07-04T14:40:59.651Z,5.70
2018-07-04T14:43:39.971Z,5.37
2018-07-04T14:46:20.444Z,5.37
2018-07-04T14:49:01.166Z,5.73
2018-07-04T14:51:41.569Z,6.13
2018-07-04T14:54:21.943Z,5.97
2018-07-04T14:57:02.198Z,6.00
2018-07-04T14:59:42.443Z,6.23
2018-07-04T15:02:22.897Z,5.50
2018-07-04T15:05:03.209Z,6.27
2018-07-04T15:07:43.359Z,6.10
2018-07-04T15:10:23.515Z,5.97
2018-07-04T15:13:03.872Z,5.97
2018-07-04T15:15:44.304Z,5.67
2018-07-04T15:18:25.319Z,5.70
2018-07-04T15:21:05.555Z,5.80
2018-07-04T15:23:45.784Z,5.37
2018-07-04T15:26:20.167Z,5.70
2018-07-04T15:29:00.479Z,6.33
2018-07-04T15:31:40.813Z,5.87
2018-07-04T15:34:22.233Z,5.90
2018-07-04T15:37:02.981Z,6.10
2018-07-04T15:39:43.420Z,5.40
2018-07-04T15:42:23.879Z,7.00
2018-07-04T15:45:04.278Z,5.47
2018-07-04T15:47:44.619Z,5.37
2018-07-04T15:50:24.906Z,6.27
2018-07-04T15:53:05.465Z,6.30
2018-07-04T15:55:45.937Z,6.80
2018-07-04T15:58:26.238Z,5.20
2018-07-04T16:01:00.693Z,6.10
2018-07-04T16:03:41.171Z,5.20
2018-07-04T16:06:21.801Z,5.70
2018-07-04T16:09:02.317Z,5.70
2018-07-04T16:11:42.892Z,5.27
2018-07-04T16:14:23.451Z,6.57
2018-07-04T16:17:04.270Z,5.50
2018-07-04T16:19:44.838Z,6.10
2018-07-04T16:22:25.118Z,6.37
2018-07-04T16:25:05.567Z,6.23
2018-07-04T16:27:45.803Z,7.47
2018-07-04T16:30:26.078Z,7.90
2018-07-04T16:33:06.491Z,6.87
2018-07-04T16:35:47.071Z,7.00
2018-07-04T16:38:27.732Z,7.37
2018-07-04T16:41:08.266Z,7.67
2018-07-04T16:43:48.531Z,6.60
2018-07-04T16:46:29.001Z,6.73
2018-07-04T16:49:09.749Z,7.27
2018-07-04T16:51:50.020Z,7.87
2018-07-04T16:54:30.173Z,8.30
2018-07-04T16:57:04.350Z,7.77
2018-07-04T16:59:44.766Z,8.13
2018-07-04T17:02:26.667Z,7.77
2018-07-04T17:05:07.080Z,8.57
2018-07-04T17:07:47.457Z,8.13
2018-07-04T17:10:21.794Z,8.07
2018-07-04T17:13:02.155Z,8.20
2018-07-04T17:15:42.538Z,8.23
2018-07-04T17:18:23.022Z,7.97
2018-07-04T17:21:03.255Z,9.07
2018-07-04T17:23:43.686Z,9.10
2018-07-04T17:26:24.042Z,9.47
2018-07-04T17:29:04.593Z,9.37
2018-07-04T17:31:44.786Z,8.80
2018-07-04T17:34:25.265Z,8.53
2018-07-04T17:37:05.762Z,8.97
2018-07-04T17:39:46.062Z,8.50
2018-07-04T17:42:26.392Z,8.93
2018-07-04T17:45:06.758Z,11.00
2018-07-04T17:47:46.996Z,10.20
2018-07-04T17:50:28.300Z,10.30
2018-07-04T17:53:08.583Z,10.27
2018-07-04T17:55:48.877Z,9.33
2018-07-04T17:58:29.069Z,10.23
2018-07-04T18:01:09.396Z,9.37
2018-07-04T18:03:49.846Z,10.60
2018-07-04T18:06:30.226Z,11.23
2018-07-04T18:09:10.745Z,9.67
2018-07-04T18:11:51.392Z,10.30
2018-07-04T18:14:31.763Z,10.97
2018-07-04T18:17:12.235Z,10.10
2018-07-04T18:19:52.641Z,11.17
2018-07-04T18:22:32.903Z,10.50
2018-07-04T18:25:13.282Z,9.70
2018-07-04T18:27:53.589Z,10.27
2018-07-04T18:30:34.029Z,9.27
2018-07-04T18:33:14.412Z,9.20
2018-07-04T18:35:54.947Z,9.33
2018-07-04T18:38:35.306Z,9.70
2018-07-04T18:41:09.647Z,10.53
2018-07-04T18:43:49.770Z,8.10
2018-07-04T18:46:30.152Z,7.30
2018-07-04T18:49:10.478Z,7.80
2018-07-04T18:51:50.968Z,8.03
2018-07-04T18:54:31.286Z,7.60
2018-07-04T18:57:11.598Z,6.03
2018-07-04T18:59:51.912Z,5.20
2018-07-04T19:02:32.304Z,5.10
2018-07-04T19:05:06.641Z,4.80
2018-07-04T19:07:47.977Z,4.70
2018-07-04T19:10:28.597Z,4.90
2018-07-04T19:13:09.088Z,4.40
2018-07-04T19:15:49.793Z,4.60
2018-07-04T19:18:30.138Z,5.37
2018-07-04T19:21:10.507Z,5.03
2018-07-04T19:23:50.842Z,4.17
2018-07-04T19:26:31.526Z,4.70
2018-07-04T19:29:12.906Z,4.90
2018-07-04T19:31:53.317Z,5.23
2018-07-04T19:34:33.915Z,4.63
2018-07-04T19:37:14.281Z,5.47
2018-07-04T19:39:54.636Z,4.70
2018-07-04T19:42:29.007Z,5.17
2018-07-04T19:45:09.418Z,4.77
2018-07-04T19:47:49.814Z,5.03
2018-07-04T19:50:30.032Z,4.93
2018-07-04T19:53:10.230Z,5.80
2018-07-04T19:55:50.619Z,5.50
2018-07-04T19:58:31.027Z,5.73
2018-07-04T20:01:11.489Z,5.43
2018-07-04T20:03:51.906Z,5.90
2018-07-04T20:06:32.214Z,5.30
2018-07-04T20:09:12.653Z,4.87
2018-07-04T20:11:52.998Z,4.73
2018-07-04T20:14:33.516Z,4.67
2018-07-04T20:17:14.024Z,5.30
2018-07-04T20:19:54.342Z,5.43
2018-07-04T20:22:34.623Z,5.10
2018-07-04T20:25:15.073Z,5.90
2018-07-04T20:27:55.429Z,5.50
2018-07-04T20:30:35.831Z,5.87
2018-07-04T20:33:16.513Z,5.53
2018-07-04T20:35:56.941Z,4.63
2018-07-04T20:38:37.469Z,4.80
2018-07-04T20:41:17.962Z,5.07
2018-07-04T20:43:58.594Z,5.07
2018-07-04T20:46:40.155Z,4.30
2018-07-04T20:49:20.650Z,5.53
2018-07-04T20:52:02.290Z,5.67
2018-07-04T20:54:42.930Z,5.10
2018-07-04T20:57:23.378Z,4.60
2018-07-04T21:00:03.818Z,5.37
2018-07-04T21:02:45.113Z,4.50
2018-07-04T21:05:25.678Z,4.80
2018-07-04T21:08:06.160Z,5.30
2018-07-04T21:10:46.482Z,4.87
2018-07-04T21:13:20.994Z,4.77
2018-07-04T21:16:01.435Z,4.73
2018-07-04T21:18:41.809Z,4.73
2018-07-04T21:21:22.195Z,4.60
2018-07-04T21:24:02.489Z,5.07
2018-07-04T21:26:42.875Z,4.27
2018-07-04T21:29:23.580Z,4.13
2018-07-04T21:32:04.267Z,4.00
2018-07-04T21:34:44.741Z,4.77
2018-07-04T21:37:25.254Z,3.73
2018-07-04T21:40:05.612Z,4.43
2018-07-04T21:42:45.975Z,4.40
2018-07-04T21:45:20.440Z,4.50
2018-07-04T21:48:00.761Z,5.20
2018-07-04T21:50:41.066Z,5.17
2018-07-04T21:53:21.485Z,5.37
2018-07-04T21:56:02.065Z,4.03
2018-07-04T21:58:42.501Z,4.20
2018-07-04T22:01:23.060Z,4.57
2018-07-04T22:04:03.543Z,4.23
2018-07-04T22:06:43.625Z,4.57
2018-07-04T22:09:23.964Z,4.83
2018-07-04T22:12:04.304Z,4.27
2018-07-04T22:14:44.877Z,4.50
2018-07-04T22:17:25.369Z,5.40
2018-07-04T22:20:05.641Z,5.00
2018-07-04T22:22:46.050Z,3.97
2018-07-04T22:25:26.266Z,5.00
2018-07-04T22:28:06.513Z,4.83
2018-07-04T22:30:46.785Z,4.43
2018-07-04T22:33:27.005Z,4.80
2018-07-04T22:36:07.382Z,4.87
2018-07-04T22:38:47.832Z,4.47
2018-07-04T22:41:28.174Z,4.47
2018-07-04T22:44:08.450Z,4.70
2018-07-04T22:46:48.896Z,4.67
2018-07-04T22:49:29.259Z,4.70
2018-07-04T22:52:09.621Z,4.67
2018-07-04T22:54:50.092Z,3.97
2018-07-04T22:57:30.529Z,5.00
2018-07-04T23:00:10.903Z,4.70
2018-07-04T23:02:51.245Z,4.60
2018-07-04T23:05:31.472Z,4.00
2018-07-04T23:08:12.064Z,4.47
2018-07-04T23:10:53.345Z,4.50
2018-07-04T23:13:33.638Z,5.50
2018-07-04T23:16:14.093Z,4.53
2018-07-04T23:18:48.452Z,5.00
2018-07-04T23:21:28.680Z,5.10
2018-07-04T23:24:08.816Z,5.83
2018-07-04T23:26:49.084Z,5.03
2018-07-04T23:29:30.338Z,5.57
2018-07-04T23:32:10.716Z,5.40
2018-07-04T23:34:50.975Z,5.03
2018-07-04T23:37:31.347Z,5.80
2018-07-04T23:40:11.871Z,4.67
2018-07-04T23:42:52.393Z,5.40
2018-07-04T23:45:32.799Z,5.73
2018-07-04T23:48:13.167Z,5.00
2018-07-04T23:50:53.581Z,5.40
2018-07-04T23:53:33.947Z,5.27
2018-07-04T23:56:14.428Z,5.87
2018-07-04T23:58:55.011Z,5.40
